sensor_id;sensor_type;location;lat;lon;timestamp;pressure;altitude;pressure_sealevel;temperature
18713;BMP280;9485;49.386;8.674;2024-03-08T00:03:48;100450.59;;;7.74
18713;BMP280;9485;49.386;8.674;2024-03-08T00:09:10;100440.50;;;7.67
18713;BMP280;9485;49.386;8.674;2024-03-08T00:14:32;100438.03;;;7.60
18713;BMP280;9485;49.386;8.674;2024-03-08T00:19:53;100435.38;;;7.57
18713;BMP280;9485;49.386;8.674;2024-03-08T00:25:13;100408.72;;;7.52
18713;BMP280;9485;49.386;8.674;2024-03-08T00:30:35;100430.13;;;7.50
18713;BMP280;9485;49.386;8.674;2024-03-08T00:35:57;100417.50;;;7.45
18713;BMP280;9485;49.386;8.674;2024-03-08T00:41:17;100411.72;;;7.40
18713;BMP280;9485;49.386;8.674;2024-03-08T00:46:40;100408.00;;;7.34
18713;BMP280;9485;49.386;8.674;2024-03-08T00:52:01;100409.44;;;7.30
18713;BMP280;9485;49.386;8.674;2024-03-08T00:57:22;100396.53;;;7.23
18713;BMP280;9485;49.386;8.674;2024-03-08T01:02:45;100396.06;;;7.16
18713;BMP280;9485;49.386;8.674;2024-03-08T01:08:06;100395.47;;;7.12
18713;BMP280;9485;49.386;8.674;2024-03-08T01:13:27;100385.81;;;7.04
18713;BMP280;9485;49.386;8.674;2024-03-08T01:18:49;100382.41;;;7.00
18713;BMP280;9485;49.386;8.674;2024-03-08T01:24:09;100375.41;;;6.95
18713;BMP280;9485;49.386;8.674;2024-03-08T01:29:30;100364.03;;;6.90
18713;BMP280;9485;49.386;8.674;2024-03-08T01:34:52;100360.63;;;6.86
18713;BMP280;9485;49.386;8.674;2024-03-08T01:40:12;100356.44;;;6.81
18713;BMP280;9485;49.386;8.674;2024-03-08T01:45:33;100338.53;;;6.70
18713;BMP280;9485;49.386;8.674;2024-03-08T01:50:55;100340.38;;;6.73
18713;BMP280;9485;49.386;8.674;2024-03-08T01:56:17;100328.56;;;6.69
18713;BMP280;9485;49.386;8.674;2024-03-08T02:01:38;100328.56;;;6.69
18713;BMP280;9485;49.386;8.674;2024-03-08T02:07:00;100319.53;;;6.65
18713;BMP280;9485;49.386;8.674;2024-03-08T02:12:21;100315.78;;;6.59
18713;BMP280;9485;49.386;8.674;2024-03-08T02:17:41;100313.94;;;6.56
18713;BMP280;9485;49.386;8.674;2024-03-08T02:23:04;100324.53;;;6.52
18713;BMP280;9485;49.386;8.674;2024-03-08T02:28:25;100322.84;;;6.46
18713;BMP280;9485;49.386;8.674;2024-03-08T02:33:46;100310.25;;;6.41
18713;BMP280;9485;49.386;8.674;2024-03-08T02:39:08;100304.78;;;6.38
18713;BMP280;9485;49.386;8.674;2024-03-08T02:44:30;100303.72;;;6.35
18713;BMP280;9485;49.386;8.674;2024-03-08T02:49:50;100289.53;;;6.30
18713;BMP280;9485;49.386;8.674;2024-03-08T02:55:12;100289.53;;;6.30
18713;BMP280;9485;49.386;8.674;2024-03-08T03:00:36;100296.09;;;6.27
18713;BMP280;9485;49.386;8.674;2024-03-08T03:05:56;100280.34;;;6.29
18713;BMP280;9485;49.386;8.674;2024-03-08T03:11:18;100280.38;;;6.20
18713;BMP280;9485;49.386;8.674;2024-03-08T03:16:38;100282.84;;;6.18
18713;BMP280;9485;49.386;8.674;2024-03-08T03:21:59;100262.94;;;6.07
18713;BMP280;9485;49.386;8.674;2024-03-08T03:27:22;100264.66;;;6.05
18713;BMP280;9485;49.386;8.674;2024-03-08T03:32:42;100266.84;;;6.01
18713;BMP280;9485;49.386;8.674;2024-03-08T03:38:06;100263.75;;;5.99
18713;BMP280;9485;49.386;8.674;2024-03-08T03:43:28;100258.16;;;5.99
18713;BMP280;9485;49.386;8.674;2024-03-08T03:48:49;100264.84;;;5.93
18713;BMP280;9485;49.386;8.674;2024-03-08T03:54:09;100255.34;;;5.90
18713;BMP280;9485;49.386;8.674;2024-03-08T03:59:31;100249.25;;;5.92
18713;BMP280;9485;49.386;8.674;2024-03-08T04:04:52;100246.78;;;5.85
18713;BMP280;9485;49.386;8.674;2024-03-08T04:10:14;100247.72;;;5.82
18713;BMP280;9485;49.386;8.674;2024-03-08T04:15:36;100241.81;;;5.80
18713;BMP280;9485;49.386;8.674;2024-03-08T04:20:57;100241.50;;;5.78
18713;BMP280;9485;49.386;8.674;2024-03-08T04:26:18;100219.19;;;5.74
18713;BMP280;9485;49.386;8.674;2024-03-08T04:31:39;100223.25;;;5.73
18713;BMP280;9485;49.386;8.674;2024-03-08T04:37:00;100215.31;;;5.72
18713;BMP280;9485;49.386;8.674;2024-03-08T04:42:22;100215.94;;;5.67
18713;BMP280;9485;49.386;8.674;2024-03-08T04:47:44;100211.75;;;5.53
18713;BMP280;9485;49.386;8.674;2024-03-08T04:53:04;100207.38;;;5.52
18713;BMP280;9485;49.386;8.674;2024-03-08T04:58:27;100203.50;;;5.50
18713;BMP280;9485;49.386;8.674;2024-03-08T05:03:49;100214.09;;;5.46
18713;BMP280;9485;49.386;8.674;2024-03-08T05:09:10;100199.63;;;5.47
18713;BMP280;9485;49.386;8.674;2024-03-08T05:14:34;100183.44;;;5.42
18713;BMP280;9485;49.386;8.674;2024-03-08T05:19:56;100195.88;;;5.41
18713;BMP280;9485;49.386;8.674;2024-03-08T05:25:17;100197.59;;;5.39
18713;BMP280;9485;49.386;8.674;2024-03-08T05:30:38;100189.97;;;5.39
18713;BMP280;9485;49.386;8.674;2024-03-08T05:36:00;100189.50;;;5.32
18713;BMP280;9485;49.386;8.674;2024-03-08T05:41:21;100178.75;;;5.30
18713;BMP280;9485;49.386;8.674;2024-03-08T05:46:42;100182.81;;;5.29
18713;BMP280;9485;49.386;8.674;2024-03-08T05:52:04;100176.44;;;5.29
18713;BMP280;9485;49.386;8.674;2024-03-08T05:57:25;100173.63;;;5.29
18713;BMP280;9485;49.386;8.674;2024-03-08T06:02:46;100156.53;;;5.27
18713;BMP280;9485;49.386;8.674;2024-03-08T06:08:08;100161.34;;;5.26
18713;BMP280;9485;49.386;8.674;2024-03-08T06:13:28;100150.47;;;5.28
18713;BMP280;9485;49.386;8.674;2024-03-08T06:18:50;100146.88;;;5.28
18713;BMP280;9485;49.386;8.674;2024-03-08T06:24:12;100151.56;;;5.31
18713;BMP280;9485;49.386;8.674;2024-03-08T06:29:34;100146.28;;;5.33
18713;BMP280;9485;49.386;8.674;2024-03-08T06:34:55;100154.19;;;5.34
18713;BMP280;9485;49.386;8.674;2024-03-08T06:40:17;100144.69;;;5.41
18713;BMP280;9485;49.386;8.674;2024-03-08T06:45:38;100148.13;;;5.45
18713;BMP280;9485;49.386;8.674;2024-03-08T06:50:58;100144.22;;;5.51
18713;BMP280;9485;49.386;8.674;2024-03-08T06:56:20;100155.56;;;5.57
18713;BMP280;9485;49.386;8.674;2024-03-08T07:01:42;100156.22;;;5.61
18713;BMP280;9485;49.386;8.674;2024-03-08T07:07:02;100166.31;;;5.67
18713;BMP280;9485;49.386;8.674;2024-03-08T07:12:24;100146.53;;;5.80
18713;BMP280;9485;49.386;8.674;2024-03-08T07:17:45;100147.63;;;5.91
18713;BMP280;9485;49.386;8.674;2024-03-08T07:23:06;100145.69;;;6.06
18713;BMP280;9485;49.386;8.674;2024-03-08T07:28:29;100130.38;;;6.16
18713;BMP280;9485;49.386;8.674;2024-03-08T07:33:50;100132.66;;;6.35
18713;BMP280;9485;49.386;8.674;2024-03-08T07:39:12;100119.50;;;6.50
18713;BMP280;9485;49.386;8.674;2024-03-08T07:44:35;100107.91;;;6.57
18713;BMP280;9485;49.386;8.674;2024-03-08T07:49:56;100105.69;;;6.61
18713;BMP280;9485;49.386;8.674;2024-03-08T07:55:17;100096.94;;;6.68
18713;BMP280;9485;49.386;8.674;2024-03-08T08:00:39;100103.69;;;6.85
18713;BMP280;9485;49.386;8.674;2024-03-08T08:06:03;100103.63;;;7.89
18713;BMP280;9485;49.386;8.674;2024-03-08T08:11:26;100087.84;;;9.65
18713;BMP280;9485;49.386;8.674;2024-03-08T08:16:48;100101.13;;;10.41
18713;BMP280;9485;49.386;8.674;2024-03-08T08:22:10;100098.16;;;11.08
18713;BMP280;9485;49.386;8.674;2024-03-08T08:27:31;100105.72;;;11.43
18713;BMP280;9485;49.386;8.674;2024-03-08T08:32:53;100105.63;;;12.12
18713;BMP280;9485;49.386;8.674;2024-03-08T08:38:17;100106.94;;;13.74
18713;BMP280;9485;49.386;8.674;2024-03-08T08:43:39;100102.13;;;15.10
18713;BMP280;9485;49.386;8.674;2024-03-08T08:49:04;100094.22;;;19.09
18713;BMP280;9485;49.386;8.674;2024-03-08T08:54:25;100107.50;;;21.31
18713;BMP280;9485;49.386;8.674;2024-03-08T08:59:46;100121.84;;;23.30
18713;BMP280;9485;49.386;8.674;2024-03-08T09:05:09;100118.25;;;24.85
18713;BMP280;9485;49.386;8.674;2024-03-08T09:10:30;100109.88;;;24.44
18713;BMP280;9485;49.386;8.674;2024-03-08T09:15:53;100110.28;;;25.12
18713;BMP280;9485;49.386;8.674;2024-03-08T09:21:15;100110.69;;;23.84
18713;BMP280;9485;49.386;8.674;2024-03-08T09:26:36;100097.69;;;23.59
18713;BMP280;9485;49.386;8.674;2024-03-08T09:31:56;100098.44;;;23.09
18713;BMP280;9485;49.386;8.674;2024-03-08T09:37:18;100101.72;;;21.46
18713;BMP280;9485;49.386;8.674;2024-03-08T09:42:39;100101.72;;;18.30
18713;BMP280;9485;49.386;8.674;2024-03-08T09:48:00;100088.19;;;18.51
18713;BMP280;9485;49.386;8.674;2024-03-08T09:53:22;100084.56;;;17.77
18713;BMP280;9485;49.386;8.674;2024-03-08T09:58:44;100077.91;;;15.46
18713;BMP280;9485;49.386;8.674;2024-03-08T10:04:34;100043.31;;;13.99
18713;BMP280;9485;49.386;8.674;2024-03-08T10:09:55;100069.19;;;12.98
18713;BMP280;9485;49.386;8.674;2024-03-08T10:15:16;100061.34;;;11.98
18713;BMP280;9485;49.386;8.674;2024-03-08T10:20:37;100062.09;;;11.66
18713;BMP280;9485;49.386;8.674;2024-03-08T10:26:10;100058.78;;;11.79
18713;BMP280;9485;49.386;8.674;2024-03-08T10:31:33;100063.25;;;11.16
18713;BMP280;9485;49.386;8.674;2024-03-08T10:37:01;100061.09;;;10.95
18713;BMP280;9485;49.386;8.674;2024-03-08T10:42:29;100042.72;;;11.26
18713;BMP280;9485;49.386;8.674;2024-03-08T10:48:10;100046.66;;;10.76
18713;BMP280;9485;49.386;8.674;2024-03-08T10:53:39;100030.06;;;11.00
18713;BMP280;9485;49.386;8.674;2024-03-08T10:59:02;100019.59;;;11.17
18713;BMP280;9485;49.386;8.674;2024-03-08T11:04:24;100016.53;;;11.37
18713;BMP280;9485;49.386;8.674;2024-03-08T11:09:47;100025.78;;;11.37
18713;BMP280;9485;49.386;8.674;2024-03-08T11:15:12;99995.47;;;11.49
18713;BMP280;9485;49.386;8.674;2024-03-08T11:20:34;99995.50;;;11.65
18713;BMP280;9485;49.386;8.674;2024-03-08T11:25:56;99991.41;;;11.94
18713;BMP280;9485;49.386;8.674;2024-03-08T11:31:25;99984.97;;;11.88
18713;BMP280;9485;49.386;8.674;2024-03-08T11:36:48;99977.78;;;11.87
18713;BMP280;9485;49.386;8.674;2024-03-08T11:42:09;99968.69;;;12.32
18713;BMP280;9485;49.386;8.674;2024-03-08T11:47:32;99960.88;;;12.54
18713;BMP280;9485;49.386;8.674;2024-03-08T11:52:53;99943.00;;;12.81
18713;BMP280;9485;49.386;8.674;2024-03-08T11:58:14;99943.72;;;12.98
18713;BMP280;9485;49.386;8.674;2024-03-08T12:03:36;99935.09;;;13.14
18713;BMP280;9485;49.386;8.674;2024-03-08T12:08:57;99922.16;;;13.83
18713;BMP280;9485;49.386;8.674;2024-03-08T12:14:18;99919.41;;;15.22
18713;BMP280;9485;49.386;8.674;2024-03-08T12:19:46;99896.81;;;16.05
18713;BMP280;9485;49.386;8.674;2024-03-08T12:25:10;99876.88;;;16.18
18713;BMP280;9485;49.386;8.674;2024-03-08T12:30:32;99871.97;;;16.91
18713;BMP280;9485;49.386;8.674;2024-03-08T12:35:55;99861.38;;;17.45
18713;BMP280;9485;49.386;8.674;2024-03-08T12:41:18;99856.16;;;18.32
18713;BMP280;9485;49.386;8.674;2024-03-08T12:46:39;99852.50;;;18.67
18713;BMP280;9485;49.386;8.674;2024-03-08T12:52:02;99839.69;;;18.53
18713;BMP280;9485;49.386;8.674;2024-03-08T12:57:23;99838.50;;;18.91
18713;BMP280;9485;49.386;8.674;2024-03-08T13:02:46;99825.53;;;18.40
18713;BMP280;9485;49.386;8.674;2024-03-08T13:08:09;99818.19;;;17.97
18713;BMP280;9485;49.386;8.674;2024-03-08T13:13:32;99798.88;;;17.82
18713;BMP280;9485;49.386;8.674;2024-03-08T13:18:55;99786.47;;;17.52
18713;BMP280;9485;49.386;8.674;2024-03-08T13:24:17;99777.47;;;17.76
18713;BMP280;9485;49.386;8.674;2024-03-08T13:29:39;99771.16;;;17.70
18713;BMP280;9485;49.386;8.674;2024-03-08T13:35:00;99765.81;;;17.94
18713;BMP280;9485;49.386;8.674;2024-03-08T13:40:22;99742.41;;;17.68
18713;BMP280;9485;49.386;8.674;2024-03-08T13:45:43;99737.41;;;17.33
18713;BMP280;9485;49.386;8.674;2024-03-08T13:51:05;99719.78;;;17.22
18713;BMP280;9485;49.386;8.674;2024-03-08T13:56:28;99718.47;;;16.61
18713;BMP280;9485;49.386;8.674;2024-03-08T14:01:49;99709.41;;;16.04
18713;BMP280;9485;49.386;8.674;2024-03-08T14:07:10;99700.69;;;15.76
18713;BMP280;9485;49.386;8.674;2024-03-08T14:12:32;99685.91;;;15.77
18713;BMP280;9485;49.386;8.674;2024-03-08T14:17:53;99660.78;;;16.02
18713;BMP280;9485;49.386;8.674;2024-03-08T14:23:14;99662.25;;;15.82
18713;BMP280;9485;49.386;8.674;2024-03-08T14:28:36;99657.59;;;16.05
18713;BMP280;9485;49.386;8.674;2024-03-08T14:33:58;99651.34;;;15.74
18713;BMP280;9485;49.386;8.674;2024-03-08T14:39:18;99638.53;;;15.67
18713;BMP280;9485;49.386;8.674;2024-03-08T14:44:42;99632.41;;;15.63
18713;BMP280;9485;49.386;8.674;2024-03-08T14:50:09;99623.59;;;15.87
18713;BMP280;9485;49.386;8.674;2024-03-08T14:55:29;99623.53;;;15.67
18713;BMP280;9485;49.386;8.674;2024-03-08T15:00:51;99623.34;;;15.39
18713;BMP280;9485;49.386;8.674;2024-03-08T15:06:15;99616.13;;;15.51
18713;BMP280;9485;49.386;8.674;2024-03-08T15:11:40;99594.69;;;15.24
18713;BMP280;9485;49.386;8.674;2024-03-08T15:17:04;99598.75;;;15.28
18713;BMP280;9485;49.386;8.674;2024-03-08T15:22:30;99589.84;;;15.06
18713;BMP280;9485;49.386;8.674;2024-03-08T15:27:50;99581.00;;;14.97
18713;BMP280;9485;49.386;8.674;2024-03-08T15:33:12;99572.56;;;14.91
18713;BMP280;9485;49.386;8.674;2024-03-08T15:38:34;99578.25;;;14.91
18713;BMP280;9485;49.386;8.674;2024-03-08T15:43:55;99546.56;;;15.00
18713;BMP280;9485;49.386;8.674;2024-03-08T15:49:18;99553.53;;;15.12
18713;BMP280;9485;49.386;8.674;2024-03-08T15:54:39;99539.22;;;15.04
18713;BMP280;9485;49.386;8.674;2024-03-08T16:00:04;99546.22;;;14.91
18713;BMP280;9485;49.386;8.674;2024-03-08T16:05:34;99536.59;;;14.68
18713;BMP280;9485;49.386;8.674;2024-03-08T16:10:55;99526.66;;;14.48
18713;BMP280;9485;49.386;8.674;2024-03-08T16:16:17;99530.63;;;14.27
18713;BMP280;9485;49.386;8.674;2024-03-08T16:21:38;99506.13;;;14.11
18713;BMP280;9485;49.386;8.674;2024-03-08T16:26:59;99499.97;;;13.94
18713;BMP280;9485;49.386;8.674;2024-03-08T16:32:21;99493.25;;;13.79
18713;BMP280;9485;49.386;8.674;2024-03-08T16:37:44;99487.00;;;13.67
18713;BMP280;9485;49.386;8.674;2024-03-08T16:43:04;99485.84;;;13.57
18713;BMP280;9485;49.386;8.674;2024-03-08T16:48:25;99494.84;;;13.43
18713;BMP280;9485;49.386;8.674;2024-03-08T16:53:47;99487.88;;;13.26
18713;BMP280;9485;49.386;8.674;2024-03-08T16:59:07;99481.59;;;13.14
18713;BMP280;9485;49.386;8.674;2024-03-08T17:04:29;99468.66;;;13.00
18713;BMP280;9485;49.386;8.674;2024-03-08T17:09:51;99469.84;;;12.86
18713;BMP280;9485;49.386;8.674;2024-03-08T17:15:11;99470.03;;;12.70
18713;BMP280;9485;49.386;8.674;2024-03-08T17:20:35;99467.88;;;12.58
18713;BMP280;9485;49.386;8.674;2024-03-08T17:25:57;99458.72;;;12.46
18713;BMP280;9485;49.386;8.674;2024-03-08T17:31:17;99461.91;;;12.37
18713;BMP280;9485;49.386;8.674;2024-03-08T17:36:40;99445.53;;;12.30
18713;BMP280;9485;49.386;8.674;2024-03-08T17:42:03;99438.22;;;12.16
18713;BMP280;9485;49.386;8.674;2024-03-08T17:47:23;99438.03;;;12.09
18713;BMP280;9485;49.386;8.674;2024-03-08T17:52:48;99432.13;;;12.07
18713;BMP280;9485;49.386;8.674;2024-03-08T17:58:11;99427.25;;;12.07
18713;BMP280;9485;49.386;8.674;2024-03-08T18:03:34;99418.78;;;12.07
18713;BMP280;9485;49.386;8.674;2024-03-08T18:08:55;99416.66;;;12.13
18713;BMP280;9485;49.386;8.674;2024-03-08T18:14:17;99411.00;;;12.13
18713;BMP280;9485;49.386;8.674;2024-03-08T18:19:38;99406.38;;;12.10
18713;BMP280;9485;49.386;8.674;2024-03-08T18:24:59;99399.97;;;12.10
18713;BMP280;9485;49.386;8.674;2024-03-08T18:30:22;99392.78;;;12.09
18713;BMP280;9485;49.386;8.674;2024-03-08T18:35:43;99379.69;;;12.06
18713;BMP280;9485;49.386;8.674;2024-03-08T18:41:06;99374.31;;;12.02
18713;BMP280;9485;49.386;8.674;2024-03-08T18:46:31;99365.38;;;11.98
18713;BMP280;9485;49.386;8.674;2024-03-08T18:51:55;99351.66;;;11.84
18713;BMP280;9485;49.386;8.674;2024-03-08T18:57:25;99392.25;;;11.87
18713;BMP280;9485;49.386;8.674;2024-03-08T19:02:49;99396.13;;;11.84
18713;BMP280;9485;49.386;8.674;2024-03-08T19:08:11;99409.25;;;11.81
18713;BMP280;9485;49.386;8.674;2024-03-08T19:13:33;99413.44;;;11.75
18713;BMP280;9485;49.386;8.674;2024-03-08T19:18:55;99411.13;;;11.73
18713;BMP280;9485;49.386;8.674;2024-03-08T19:24:16;99412.72;;;11.69
18713;BMP280;9485;49.386;8.674;2024-03-08T19:29:36;99417.66;;;11.63
18713;BMP280;9485;49.386;8.674;2024-03-08T19:34:58;99415.66;;;11.58
18713;BMP280;9485;49.386;8.674;2024-03-08T19:40:22;99424.16;;;11.52
18713;BMP280;9485;49.386;8.674;2024-03-08T19:45:43;99427.53;;;11.45
18713;BMP280;9485;49.386;8.674;2024-03-08T19:51:06;99434.75;;;11.41
18713;BMP280;9485;49.386;8.674;2024-03-08T19:56:34;99415.78;;;11.36
18713;BMP280;9485;49.386;8.674;2024-03-08T20:01:57;99406.34;;;11.28
18713;BMP280;9485;49.386;8.674;2024-03-08T20:07:19;99394.59;;;11.19
18713;BMP280;9485;49.386;8.674;2024-03-08T20:12:42;99386.94;;;11.14
18713;BMP280;9485;49.386;8.674;2024-03-08T20:18:04;99370.03;;;11.08
18713;BMP280;9485;49.386;8.674;2024-03-08T20:23:26;99357.47;;;11.04
18713;BMP280;9485;49.386;8.674;2024-03-08T20:28:48;99362.94;;;10.96
18713;BMP280;9485;49.386;8.674;2024-03-08T20:34:10;99364.22;;;10.95
18713;BMP280;9485;49.386;8.674;2024-03-08T20:39:35;99378.09;;;10.93
18713;BMP280;9485;49.386;8.674;2024-03-08T20:44:55;99375.53;;;10.90
18713;BMP280;9485;49.386;8.674;2024-03-08T20:50:20;99384.81;;;10.85
18713;BMP280;9485;49.386;8.674;2024-03-08T20:55:44;99375.84;;;10.81
18713;BMP280;9485;49.386;8.674;2024-03-08T21:01:07;99383.59;;;10.75
18713;BMP280;9485;49.386;8.674;2024-03-08T21:06:28;99377.47;;;10.71
18713;BMP280;9485;49.386;8.674;2024-03-08T21:11:50;99360.28;;;10.69
18713;BMP280;9485;49.386;8.674;2024-03-08T21:17:11;99353.91;;;10.63
18713;BMP280;9485;49.386;8.674;2024-03-08T21:22:31;99360.81;;;10.67
18713;BMP280;9485;49.386;8.674;2024-03-08T21:27:53;99379.78;;;10.67
18713;BMP280;9485;49.386;8.674;2024-03-08T21:33:14;99372.13;;;10.62
18713;BMP280;9485;49.386;8.674;2024-03-08T21:38:36;99370.06;;;10.62
18713;BMP280;9485;49.386;8.674;2024-03-08T21:43:58;99361.63;;;10.57
18713;BMP280;9485;49.386;8.674;2024-03-08T21:49:20;99382.47;;;10.48
18713;BMP280;9485;49.386;8.674;2024-03-08T21:54:41;99402.25;;;10.43
18713;BMP280;9485;49.386;8.674;2024-03-08T22:00:03;99393.03;;;10.37
18713;BMP280;9485;49.386;8.674;2024-03-08T22:05:31;99372.28;;;10.29
18713;BMP280;9485;49.386;8.674;2024-03-08T22:10:55;99362.81;;;10.27
18713;BMP280;9485;49.386;8.674;2024-03-08T22:16:20;99361.00;;;10.29
18713;BMP280;9485;49.386;8.674;2024-03-08T22:21:42;99369.00;;;10.20
18713;BMP280;9485;49.386;8.674;2024-03-08T22:27:03;99359.53;;;10.12
18713;BMP280;9485;49.386;8.674;2024-03-08T22:32:24;99365.91;;;10.12
18713;BMP280;9485;49.386;8.674;2024-03-08T22:37:46;99355.66;;;10.15
18713;BMP280;9485;49.386;8.674;2024-03-08T22:43:08;99351.28;;;10.14
18713;BMP280;9485;49.386;8.674;2024-03-08T22:48:31;99361.06;;;10.13
18713;BMP280;9485;49.386;8.674;2024-03-08T22:53:52;99348.75;;;10.10
18713;BMP280;9485;49.386;8.674;2024-03-08T22:59:13;99334.16;;;10.12
18713;BMP280;9485;49.386;8.674;2024-03-08T23:04:35;99351.06;;;10.06
18713;BMP280;9485;49.386;8.674;2024-03-08T23:09:55;99342.13;;;9.97
18713;BMP280;9485;49.386;8.674;2024-03-08T23:15:18;99328.81;;;9.81
18713;BMP280;9485;49.386;8.674;2024-03-08T23:20:45;99333.97;;;9.77
18713;BMP280;9485;49.386;8.674;2024-03-08T23:26:08;99337.56;;;9.77
18713;BMP280;9485;49.386;8.674;2024-03-08T23:31:29;99345.22;;;9.82
18713;BMP280;9485;49.386;8.674;2024-03-08T23:36:54;99321.91;;;9.87
18713;BMP280;9485;49.386;8.674;2024-03-08T23:42:14;99338.28;;;9.94
18713;BMP280;9485;49.386;8.674;2024-03-08T23:47:36;99358.50;;;9.93
18713;BMP280;9485;49.386;8.674;2024-03-08T23:53:01;99362.66;;;9.92
18713;BMP280;9485;49.386;8.674;2024-03-08T23:58:25;99369.81;;;9.87
